TimeCST,TemperatureF,Dew PointF,Humidity,Sea Level PressureIn,VisibilityMPH,Wind Direction,Wind SpeedMPH,Gust SpeedMPH,PrecipitationIn,Events,Conditions,WindDirDegrees,DateUTC
12:53 AM,42.1,32.0,67,29.83,10.0,West,13.8,-,N/A,,Overcast,260,2013-02-27 06:53:00
1:53 AM,42.1,32.0,67,29.84,10.0,West,13.8,-,N/A,,Overcast,260,2013-02-27 07:53:00
2:08 AM,42.8,32.0,66,29.84,10.0,West,12.7,20.7,N/A,,Overcast,260,2013-02-27 08:08:00
2:43 AM,41.0,32.0,70,29.84,10.0,West,13.8,21.9,N/A,,Overcast,260,2013-02-27 08:43:00
2:53 AM,41.0,32.0,70,29.84,10.0,West,18.4,24.2,N/A,,Overcast,270,2013-02-27 08:53:00
3:53 AM,41.0,30.0,65,29.85,10.0,West,15.0,23.0,N/A,,Overcast,270,2013-02-27 09:53:00
4:53 AM,41.0,32.0,70,29.86,10.0,SW,10.4,-,N/A,,Overcast,230,2013-02-27 10:53:00
5:53 AM,41.0,30.0,65,29.87,10.0,West,12.7,-,N/A,,Overcast,270,2013-02-27 11:53:00
6:53 AM,41.0,30.9,67,29.89,10.0,WSW,10.4,-,N/A,,Overcast,250,2013-02-27 12:53:00
7:08 AM,41.0,30.2,65,29.89,10.0,WSW,13.8,-,N/A,,Overcast,250,2013-02-27 13:08:00
7:53 AM,41.0,30.9,67,29.92,10.0,West,11.5,-,N/A,,Overcast,260,2013-02-27 13:53:00
9:53 AM,44.1,33.1,65,29.92,10.0,WSW,12.7,-,N/A,,Mostly Cloudy,240,2013-02-27 15:53:00
10:35 AM,46.4,33.8,62,29.91,10.0,WNW,10.4,-,N/A,,Partly Cloudy,290,2013-02-27 16:35:00
10:53 AM,45.0,34.0,65,29.91,10.0,WNW,10.4,-,N/A,,Clear,300,2013-02-27 16:53:00
11:53 AM,46.9,34.0,61,29.90,10.0,NW,5.8,-,N/A,,Partly Cloudy,310,2013-02-27 17:53:00
12:53 PM,48.9,36.0,61,29.87,10.0,Variable,4.6,-,N/A,,Clear,0,2013-02-27 18:53:00
1:53 PM,52.0,37.0,57,29.86,10.0,WNW,9.2,-,N/A,,Partly Cloudy,300,2013-02-27 19:53:00
2:53 PM,52.0,36.0,54,29.86,10.0,WNW,13.8,-,N/A,,Partly Cloudy,290,2013-02-27 20:53:00
3:53 PM,53.1,35.1,50,29.85,10.0,West,10.4,24.2,N/A,,Overcast,270,2013-02-27 21:53:00
4:53 PM,51.1,35.1,54,29.87,10.0,NW,13.8,-,N/A,,Overcast,310,2013-02-27 22:53:00
5:53 PM,48.0,35.1,61,29.90,10.0,WNW,12.7,-,N/A,,Unknown,300,2013-02-27 23:53:00
6:53 PM,45.0,34.0,65,29.93,10.0,WNW,11.5,-,N/A,,Scattered Clouds,300,2013-02-28 00:53:00
7:53 PM,44.1,34.0,68,29.94,10.0,NW,6.9,-,N/A,,Mostly Cloudy,320,2013-02-28 01:53:00
8:53 PM,44.1,34.0,68,29.96,10.0,WNW,11.5,20.7,0.00,,Overcast,300,2013-02-28 02:53:00
9:53 PM,43.0,32.0,65,29.96,10.0,WNW,9.2,-,N/A,,Overcast,300,2013-02-28 03:53:00
10:53 PM,42.1,32.0,67,29.95,10.0,NW,5.8,-,N/A,,Overcast,310,2013-02-28 04:53:00
11:53 PM,39.9,33.1,77,29.93,10.0,WNW,3.5,-,0.00,,Overcast,300,2013-02-28 05:53:00